Time;durP1;ratioP1;P1;durP2;ratioP2;P2;SDS_P1;SDS_P2;PMS_P1;PMS_P2;Temp;Humidity;BMP_temperature;BMP_pressure;BME280_temperature;BME280_humidity;BME280_pressure;Samples;Min_cycle;Max_cycle;Signal;HPM_P1;HPM_P2
2022/10/16 00:01:57;;;;;;;4.45;2.25;;;;;;;-145.23;100.00;58621.06;5024025;28;20588;-52
2022/10/16 00:04:23;;;;;;;3.90;2.10;;;;;;;-145.23;100.00;58621.06;5022487;28;20240;-53
2022/10/16 00:06:50;;;;;;;2.10;1.90;;;;;;;-145.23;100.00;58621.06;5023752;28;20229;-53
2022/10/16 00:09:17;;;;;;;1.90;1.80;;;;;;;-145.23;100.00;58621.06;5019805;28;20271;-53
2022/10/16 00:11:44;;;;;;;1.98;1.88;;;;;;;-145.23;100.00;58621.06;5023415;28;20324;-52
2022/10/16 00:14:14;;;;;;;3.85;1.60;;;;;;;-145.23;100.00;58621.06;5042234;28;20774;-52
2022/10/16 00:16:41;;;;;;;1.90;1.80;;;;;;;-145.23;100.00;58621.06;5045252;28;20235;-52
2022/10/16 00:19:08;;;;;;;2.00;1.80;;;;;;;-145.23;100.00;58621.06;5042267;28;20617;-52
2022/10/16 00:21:35;;;;;;;2.08;1.90;;;;;;;-145.23;100.00;58621.06;5044235;28;20235;-52
2022/10/16 00:24:04;;;;;;;2.20;2.10;;;;;;;-145.23;100.00;58621.06;5037455;28;20314;-52
2022/10/16 00:26:33;;;;;;;2.50;2.30;;;;;;;-145.23;100.00;58621.06;5043160;28;20228;-52
2022/10/16 00:29:00;;;;;;;1.70;1.60;;;;;;;-145.23;100.00;58621.06;5041756;28;20228;-51
2022/10/16 00:31:29;;;;;;;1.60;1.50;;;;;;;-145.23;100.00;58621.06;5032723;28;20247;-52
2022/10/16 00:33:56;;;;;;;4.68;3.58;;;;;;;-145.23;100.00;58621.06;5042117;28;20264;-52
2022/10/16 00:36:24;;;;;;;1.83;1.48;;;;;;;-145.23;100.00;58621.06;5042137;28;20255;-52
2022/10/16 00:38:54;;;;;;;4.45;1.80;;;;;;;-145.23;100.00;58621.06;5015533;28;20233;-53
2022/10/16 00:41:22;;;;;;;1.80;1.70;;;;;;;-145.23;100.00;58621.06;5020330;28;20252;-54
2022/10/16 00:43:50;;;;;;;1.60;1.50;;;;;;;-145.23;100.00;58621.06;5027355;28;20706;-54
2022/10/16 00:46:21;;;;;;;2.00;1.80;;;;;;;-145.23;100.00;58621.06;5042512;28;20239;-51
2022/10/16 00:48:52;;;;;;;4.05;2.08;;;;;;;-145.23;100.00;58621.06;5020363;28;20220;-52
2022/10/16 00:51:21;;;;;;;3.15;1.98;;;;;;;-145.23;100.00;58621.06;5019074;28;20275;-52
2022/10/16 00:53:48;;;;;;;3.33;2.22;;;;;;;-145.23;100.00;58621.06;5017635;28;20267;-51
2022/10/16 00:56:15;;;;;;;2.33;2.13;;;;;;;-145.23;100.00;58621.06;5028633;28;20235;-52
2022/10/16 00:58:42;;;;;;;1.70;1.60;;;;;;;-145.23;100.00;58621.06;5044516;28;20252;-52
2022/10/16 01:01:14;;;;;;;3.40;1.83;;;;;;;-145.23;100.00;58621.06;5038056;28;20236;-51
2022/10/16 01:03:41;;;;;;;12.25;2.13;;;;;;;-145.23;100.00;58621.06;5027544;28;20259;-52
2022/10/16 01:06:23;;;;;;;3.63;1.73;;;;;;;-145.23;100.00;58621.06;5032929;28;20247;-53
2022/10/16 01:08:59;;;;;;;1.52;1.42;;;;;;;-145.23;100.00;58621.06;5042342;28;20847;-52
2022/10/16 01:11:29;;;;;;;2.40;2.20;;;;;;;-145.23;100.00;58621.06;5043699;28;20724;-51
2022/10/16 01:14:00;;;;;;;1.90;1.80;;;;;;;-145.23;100.00;58621.06;5035514;28;20286;-52
2022/10/16 01:16:33;;;;;;;1.77;1.67;;;;;;;-145.23;100.00;58621.06;5037000;28;20235;-52
2022/10/16 01:19:05;;;;;;;2.15;1.90;;;;;;;-145.23;100.00;58621.06;5039816;28;20231;-52
2022/10/16 01:21:36;;;;;;;2.30;2.10;;;;;;;-145.23;100.00;58621.06;5043657;28;20721;-52
2022/10/16 01:24:09;;;;;;;1.70;1.60;;;;;;;-145.23;100.00;58621.06;5040169;28;20224;-53
2022/10/16 01:26:49;;;;;;;1.98;1.85;;;;;;;-145.23;100.00;58621.06;5039178;28;20322;-52
2022/10/16 01:29:20;;;;;;;1.58;1.42;;;;;;;-145.23;100.00;58621.06;5043863;28;20282;-52
2022/10/16 01:31:49;;;;;;;1.65;1.55;;;;;;;-145.23;100.00;58621.06;5031084;28;20689;-51
2022/10/16 01:34:17;;;;;;;1.83;1.73;;;;;;;-145.23;100.00;58621.06;5038681;28;20642;-54
2022/10/16 01:36:48;;;;;;;1.75;1.65;;;;;;;-145.23;100.00;58621.06;5024323;28;20229;-52
2022/10/16 01:39:15;;;;;;;1.73;1.63;;;;;;;-145.23;100.00;58621.06;5043310;28;20912;-52
2022/10/16 01:41:45;;;;;;;1.50;1.40;;;;;;;-145.23;100.00;58621.06;5043295;28;20281;-52
2022/10/16 01:44:17;;;;;;;1.63;1.30;;;;;;;-145.23;100.00;58621.06;5025511;28;20691;-52
2022/10/16 01:46:47;;;;;;;1.75;1.65;;;;;;;-145.23;100.00;58621.06;5039449;28;20239;-52
2022/10/16 01:49:14;;;;;;;1.70;1.60;;;;;;;-145.23;100.00;58621.06;5022014;28;20236;-52
2022/10/16 01:51:42;;;;;;;1.65;1.55;;;;;;;-145.23;100.00;58621.06;5035576;28;20314;-52
2022/10/16 01:54:09;;;;;;;2.10;1.60;;;;;;;-145.23;100.00;58621.06;5024553;28;20646;-52
2022/10/16 01:56:37;;;;;;;1.33;1.23;;;;;;;-145.23;100.00;58621.06;5022329;28;20232;-52
2022/10/16 01:59:06;;;;;;;1.55;1.45;;;;;;;-145.23;100.00;58621.06;5017980;28;20245;-53
2022/10/16 02:01:36;;;;;;;1.95;1.75;;;;;;;-145.23;100.00;58621.06;5015914;28;20228;-54
2022/10/16 02:04:09;;;;;;;1.60;1.50;;;;;;;-145.23;100.00;58621.06;5021305;28;20240;-52
2022/10/16 02:06:36;;;;;;;1.92;1.73;;;;;;;-145.23;100.00;58621.06;5025091;28;20236;-51
2022/10/16 02:09:04;;;;;;;1.67;1.58;;;;;;;-145.23;100.00;58621.06;5024779;28;20235;-52
2022/10/16 02:11:31;;;;;;;1.88;1.58;;;;;;;-145.23;100.00;58621.06;5027959;28;20319;-52
2022/10/16 02:14:00;;;;;;;1.67;1.58;;;;;;;-145.23;100.00;58621.06;5021815;28;20233;-52
2022/10/16 02:16:36;;;;;;;2.03;1.92;;;;;;;-145.23;100.00;58621.06;5024411;28;20229;-51
2022/10/16 02:19:02;;;;;;;2.25;2.05;;;;;;;-145.23;100.00;58621.06;5025989;28;20252;-50
2022/10/16 02:21:32;;;;;;;1.30;1.30;;;;;;;-145.23;100.00;58621.06;5027628;28;20298;-52
2022/10/16 02:24:04;;;;;;;1.73;1.63;;;;;;;-145.23;100.00;58621.06;5025705;28;20714;-52
2022/10/16 02:26:34;;;;;;;1.88;1.77;;;;;;;-145.23;100.00;58621.06;5026750;28;20245;-51
2022/10/16 02:29:07;;;;;;;1.60;1.50;;;;;;;-145.23;100.00;58621.06;5017495;28;20229;-52
2022/10/16 02:31:37;;;;;;;1.60;1.50;;;;;;;-145.23;100.00;58621.06;5013322;28;20235;-52
2022/10/16 02:34:05;;;;;;;1.92;1.80;;;;;;;-145.23;100.00;58621.06;5029269;28;20483;-52
2022/10/16 02:36:33;;;;;;;1.85;1.75;;;;;;;-145.23;100.00;58621.06;5018629;28;20236;-51
2022/10/16 02:39:01;;;;;;;1.52;1.42;;;;;;;-145.23;100.00;58621.06;5026332;28;20228;-51
2022/10/16 02:41:28;;;;;;;1.73;1.63;;;;;;;-145.23;100.00;58621.06;5025399;28;20913;-52
2022/10/16 02:43:55;;;;;;;1.65;1.55;;;;;;;-145.23;100.00;58621.06;5020065;28;20294;-54
2022/10/16 02:46:23;;;;;;;1.50;1.40;;;;;;;-145.23;100.00;58621.06;5044192;28;20236;-52
2022/10/16 02:48:51;;;;;;;1.70;1.50;;;;;;;-145.23;100.00;58621.06;5025594;28;20720;-52
2022/10/16 02:51:18;;;;;;;1.27;1.27;;;;;;;-145.23;100.00;58621.06;5024446;28;20742;-51
2022/10/16 02:53:45;;;;;;;1.48;1.38;;;;;;;-145.23;100.00;58621.06;5026510;28;20232;-52
2022/10/16 02:56:11;;;;;;;2.30;1.23;;;;;;;-145.23;100.00;58621.06;5042353;28;20318;-52
2022/10/16 02:58:38;;;;;;;1.90;1.45;;;;;;;-145.23;100.00;58621.06;5045756;28;20232;-52
2022/10/16 03:01:05;;;;;;;1.33;1.23;;;;;;;-145.23;100.00;58621.06;5035141;28;21650;-52
2022/10/16 03:03:32;;;;;;;2.97;1.40;;;;;;;-145.23;100.00;58621.06;5046401;28;20597;-51
2022/10/16 03:06:00;;;;;;;1.88;1.48;;;;;;;-145.23;100.00;58621.06;5038605;28;20301;-52
2022/10/16 03:08:27;;;;;;;1.55;1.40;;;;;;;-145.23;100.00;58621.06;5065302;28;20628;-51
2022/10/16 03:10:54;;;;;;;1.50;1.40;;;;;;;-145.23;100.00;58621.06;5044683;28;20223;-52
2022/10/16 03:13:21;;;;;;;1.60;1.50;;;;;;;-145.23;100.00;58621.06;5041831;28;20232;-52
2022/10/16 03:15:48;;;;;;;1.70;1.60;;;;;;;-145.23;100.00;58621.06;5044032;28;20228;-51
2022/10/16 03:18:15;;;;;;;1.63;1.52;;;;;;;-145.23;100.00;58621.06;5045102;28;20236;-53
2022/10/16 03:20:43;;;;;;;1.70;1.60;;;;;;;-145.23;100.00;58621.06;5046192;28;20232;-52
2022/10/16 03:23:11;;;;;;;1.50;1.40;;;;;;;-145.23;100.00;58621.06;5031547;28;20244;-53
2022/10/16 03:25:38;;;;;;;1.58;1.30;;;;;;;-145.23;100.00;58621.06;5041003;28;20327;-53
2022/10/16 03:28:05;;;;;;;1.40;1.30;;;;;;;-145.23;100.00;58621.06;5022495;28;20232;-53
2022/10/16 03:30:32;;;;;;;1.85;1.75;;;;;;;-145.23;100.00;58621.06;5020345;28;20227;-51
2022/10/16 03:32:58;;;;;;;1.60;1.50;;;;;;;-145.23;100.00;58621.06;5046381;28;20738;-52
2022/10/16 03:35:25;;;;;;;1.83;1.73;;;;;;;-145.23;100.00;58621.06;5044362;28;20235;-51
2022/10/16 03:37:52;;;;;;;1.83;1.73;;;;;;;-145.23;100.00;58621.06;5044855;28;20324;-53
2022/10/16 03:40:21;;;;;;;1.98;1.88;;;;;;;-145.23;100.00;58621.06;5040692;28;20245;-51
2022/10/16 03:42:47;;;;;;;1.67;1.58;;;;;;;-145.23;100.00;58621.06;5041249;28;20239;-51
2022/10/16 03:45:14;;;;;;;1.52;1.40;;;;;;;-145.23;100.00;58621.06;5008731;28;20243;-51
2022/10/16 03:47:41;;;;;;;1.27;1.27;;;;;;;-145.23;100.00;58621.06;5040253;28;20624;-51
2022/10/16 03:50:08;;;;;;;1.70;1.55;;;;;;;-145.23;100.00;58621.06;5034409;28;20288;-52
2022/10/16 03:52:35;;;;;;;1.40;1.30;;;;;;;-145.23;100.00;58621.06;5044022;28;20251;-53
2022/10/16 03:55:02;;;;;;;1.77;1.23;;;;;;;-145.23;100.00;58621.06;5025084;28;20237;-52
2022/10/16 03:57:30;;;;;;;1.52;1.42;;;;;;;-145.23;100.00;58621.06;5025145;28;20758;-52
2022/10/16 03:59:56;;;;;;;1.85;1.75;;;;;;;-145.23;100.00;58621.06;5020607;28;20315;-53
2022/10/16 04:02:23;;;;;;;1.60;1.50;;;;;;;-145.23;100.00;58621.06;5022114;28;20240;-53
2022/10/16 04:04:51;;;;;;;1.70;1.60;;;;;;;-145.23;100.00;58621.06;5020519;28;20788;-51
2022/10/16 04:07:17;;;;;;;1.92;1.70;;;;;;;-145.23;100.00;58621.06;5024872;28;20685;-52
2022/10/16 04:09:44;;;;;;;1.67;1.58;;;;;;;-145.23;100.00;58621.06;5023846;28;20232;-52
2022/10/16 04:12:10;;;;;;;2.10;1.90;;;;;;;-145.23;100.00;58621.06;5045090;28;20236;-52
2022/10/16 04:14:39;;;;;;;1.80;1.70;;;;;;;-145.23;100.00;58621.06;5042967;28;20317;-52
2022/10/16 04:17:05;;;;;;;1.83;1.73;;;;;;;-145.23;100.00;58621.06;5044936;28;21728;-53
2022/10/16 04:19:32;;;;;;;2.80;1.67;;;;;;;-145.23;100.00;58621.06;5036980;28;20236;-52
2022/10/16 04:21:58;;;;;;;2.60;1.88;;;;;;;-145.23;100.00;58621.06;5044508;28;20267;-51
2022/10/16 04:24:25;;;;;;;2.20;2.00;;;;;;;-145.23;100.00;58621.06;5021471;28;20241;-52
2022/10/16 04:26:52;;;;;;;1.92;1.80;;;;;;;-145.23;100.00;58621.06;5021737;28;20315;-52
2022/10/16 04:29:19;;;;;;;3.63;2.00;;;;;;;-145.23;100.00;58621.06;5033043;28;20323;-53
2022/10/16 04:31:48;;;;;;;2.30;2.10;;;;;;;-145.23;100.00;58621.06;5011294;28;20239;-51
2022/10/16 04:34:14;;;;;;;2.05;1.85;;;;;;;-145.23;100.00;58621.06;5046261;28;20250;-52
2022/10/16 04:36:41;;;;;;;1.55;1.42;;;;;;;-145.23;100.00;58621.06;5043419;28;20227;-52
2022/10/16 04:39:08;;;;;;;2.17;1.98;;;;;;;-145.23;100.00;58621.06;5042055;28;20235;-52
2022/10/16 04:41:34;;;;;;;1.45;1.35;;;;;;;-145.23;100.00;58621.06;5040884;28;20327;-52
2022/10/16 04:44:01;;;;;;;1.50;1.40;;;;;;;-145.23;100.00;58621.06;5027561;28;20251;-54
2022/10/16 04:46:28;;;;;;;1.52;1.42;;;;;;;-145.23;100.00;58621.06;5042978;28;20248;-51
2022/10/16 04:48:56;;;;;;;1.77;1.67;;;;;;;-145.23;100.00;58621.06;5025247;28;20312;-52
2022/10/16 04:51:23;;;;;;;2.00;1.80;;;;;;;-145.23;100.00;58621.06;5017902;28;20246;-52
2022/10/16 04:53:49;;;;;;;2.97;1.83;;;;;;;-145.23;100.00;58621.06;5026852;28;20239;-52
2022/10/16 04:56:16;;;;;;;1.92;1.83;;;;;;;-145.23;100.00;58621.06;5043036;28;20231;-53
2022/10/16 04:58:43;;;;;;;1.55;1.48;;;;;;;-145.23;100.00;58621.06;5032775;28;20993;-51
2022/10/16 05:01:10;;;;;;;1.58;1.48;;;;;;;-145.23;100.00;58621.06;5039341;28;20668;-52
2022/10/16 05:03:36;;;;;;;1.77;1.67;;;;;;;-145.23;100.00;58621.06;5044139;28;20235;-52
2022/10/16 05:06:06;;;;;;;1.73;1.63;;;;;;;-145.23;100.00;58621.06;5036823;28;20234;-51
2022/10/16 05:08:32;;;;;;;2.05;1.75;;;;;;;-145.23;100.00;58621.06;5043933;28;20231;-54
2022/10/16 05:11:00;;;;;;;1.92;1.83;;;;;;;-145.23;100.00;58621.06;5034670;28;20255;-52
2022/10/16 05:13:27;;;;;;;1.77;1.67;;;;;;;-145.23;100.00;58621.06;5035204;28;20322;-52
2022/10/16 05:15:53;;;;;;;2.15;2.05;;;;;;;-145.23;100.00;58621.06;5044499;28;20232;-52
2022/10/16 05:18:20;;;;;;;1.95;1.85;;;;;;;-145.23;100.00;58621.06;5035923;28;20237;-51
2022/10/16 05:20:47;;;;;;;2.45;2.25;;;;;;;-145.23;100.00;58621.06;5024959;28;20228;-51
2022/10/16 05:23:15;;;;;;;2.22;2.10;;;;;;;-145.23;100.00;58621.06;5014338;28;20331;-51
2022/10/16 05:25:42;;;;;;;2.13;1.52;;;;;;;-145.23;100.00;58621.06;5006773;28;20243;-51
2022/10/16 05:28:09;;;;;;;2.88;2.03;;;;;;;-145.23;100.00;58621.06;5021097;28;20248;-51
2022/10/16 05:30:38;;;;;;;1.83;1.73;;;;;;;-145.23;100.00;58621.06;5014095;28;20241;-52
2022/10/16 05:33:04;;;;;;;1.90;1.80;;;;;;;-145.23;100.00;58621.06;5019884;28;20236;-52
2022/10/16 05:35:31;;;;;;;1.70;1.60;;;;;;;-145.23;100.00;58621.06;5020513;28;20240;-52
2022/10/16 05:37:58;;;;;;;2.00;1.80;;;;;;;-145.23;100.00;58621.06;5024118;28;20234;-51
2022/10/16 05:40:26;;;;;;;2.78;1.60;;;;;;;-145.23;100.00;58621.06;5019897;28;20232;-51
2022/10/16 05:42:56;;;;;;;3.25;1.50;;;;;;;-145.23;100.00;58621.06;5023549;28;20722;-51
2022/10/16 05:45:23;;;;;;;1.90;1.80;;;;;;;-145.23;100.00;58621.06;5022679;28;20244;-52
2022/10/16 05:47:50;;;;;;;1.83;1.55;;;;;;;-145.23;100.00;58621.06;5021138;28;20709;-52
2022/10/16 05:50:16;;;;;;;1.80;1.70;;;;;;;-145.23;100.00;58621.06;5019161;28;20780;-51
2022/10/16 05:52:43;;;;;;;1.23;1.23;;;;;;;-145.23;100.00;58621.06;5028836;28;20239;-52
2022/10/16 05:55:10;;;;;;;1.45;1.35;;;;;;;-145.23;100.00;58621.06;5020764;28;20236;-53
2022/10/16 05:57:38;;;;;;;1.83;1.73;;;;;;;-145.23;100.00;58621.06;5024121;28;22111;-52
2022/10/16 06:00:06;;;;;;;3.40;2.30;;;;;;;-145.23;100.00;58621.06;5025387;28;20706;-53
2022/10/16 06:02:32;;;;;;;1.63;1.52;;;;;;;-145.23;100.00;58621.06;5032296;28;20263;-53
2022/10/16 06:04:59;;;;;;;2.10;2.00;;;;;;;-145.23;100.00;58621.06;5045587;28;20235;-51
2022/10/16 06:07:26;;;;;;;2.15;2.05;;;;;;;-145.23;100.00;58621.06;5047539;28;20271;-53
2022/10/16 06:09:53;;;;;;;1.83;1.73;;;;;;;-145.23;100.00;58621.06;5037297;28;20224;-52
2022/10/16 06:12:20;;;;;;;2.13;1.98;;;;;;;-145.23;100.00;58621.06;5043702;28;20235;-51
2022/10/16 06:14:49;;;;;;;7.40;2.47;;;;;;;-145.23;100.00;58621.06;5031413;28;20238;-51
2022/10/16 06:17:15;;;;;;;2.10;1.92;;;;;;;-145.23;100.00;58621.06;5023613;28;20327;-52
2022/10/16 06:19:42;;;;;;;1.67;1.58;;;;;;;-145.23;100.00;58621.06;5023605;28;20307;-52
2022/10/16 06:22:09;;;;;;;4.45;1.90;;;;;;;-145.23;100.00;58621.06;5019502;28;20249;-53
2022/10/16 06:24:36;;;;;;;1.70;1.52;;;;;;;-145.23;100.00;58621.06;5015537;28;20666;-53
2022/10/16 06:27:04;;;;;;;2.70;1.65;;;;;;;-145.23;100.00;58621.06;5013760;28;20271;-52
2022/10/16 06:29:30;;;;;;;1.98;1.88;;;;;;;-145.23;100.00;58621.06;5026837;28;20612;-52
2022/10/16 06:31:58;;;;;;;3.10;2.03;;;;;;;-145.23;100.00;58621.06;5024094;28;20241;-54
2022/10/16 06:34:24;;;;;;;2.55;2.35;;;;;;;-145.23;100.00;58621.06;5027561;28;20271;-51
2022/10/16 06:36:51;;;;;;;2.63;2.42;;;;;;;-145.23;100.00;58621.06;5027489;28;20224;-52
2022/10/16 06:39:18;;;;;;;5.30;2.20;;;;;;;-145.23;100.00;58621.06;5027221;28;20240;-52
2022/10/16 06:41:44;;;;;;;1.98;1.88;;;;;;;-145.23;100.00;58621.06;5024703;28;20232;-53
2022/10/16 06:44:11;;;;;;;2.42;2.22;;;;;;;-145.23;100.00;58621.06;5042500;28;20661;-52
2022/10/16 06:46:38;;;;;;;2.90;2.25;;;;;;;-145.23;100.00;58621.06;5046599;28;20232;-52
2022/10/16 06:49:06;;;;;;;3.33;3.13;;;;;;;-145.23;100.00;58621.06;5028334;28;20306;-52
2022/10/16 06:51:34;;;;;;;2.50;2.30;;;;;;;-145.23;100.00;58621.06;5018061;28;20243;-52
2022/10/16 06:54:01;;;;;;;3.03;2.40;;;;;;;-145.23;100.00;58621.06;5031182;28;20314;-51
2022/10/16 06:56:29;;;;;;;3.55;2.38;;;;;;;-145.23;100.00;58621.06;5044956;28;20238;-53
2022/10/16 06:58:56;;;;;;;2.42;2.30;;;;;;;-145.23;100.00;58621.06;5046814;28;20238;-53
2022/10/16 07:01:25;;;;;;;2.67;2.38;;;;;;;-145.23;100.00;58621.06;5039190;28;20736;-53
2022/10/16 07:03:52;;;;;;;1.80;1.70;;;;;;;-145.23;100.00;58621.06;5040645;28;20306;-53
2022/10/16 07:06:21;;;;;;;5.53;2.35;;;;;;;-145.23;100.00;58621.06;5036387;28;20270;-52
2022/10/16 07:08:48;;;;;;;1.70;1.60;;;;;;;-145.23;100.00;58621.06;5046283;28;20231;-52
2022/10/16 07:11:16;;;;;;;2.28;1.80;;;;;;;-145.23;100.00;58621.06;5035669;28;20242;-51
2022/10/16 07:13:44;;;;;;;2.40;2.10;;;;;;;-145.23;100.00;58621.06;5021343;28;20232;-51
2022/10/16 07:16:12;;;;;;;2.28;2.13;;;;;;;-145.23;100.00;58621.06;5024596;28;20653;-51
2022/10/16 07:18:40;;;;;;;1.98;1.88;;;;;;;-145.23;100.00;58621.06;5018819;28;20236;-51
2022/10/16 07:21:07;;;;;;;2.38;2.20;;;;;;;-145.23;100.00;58621.06;5022917;28;20240;-51
2022/10/16 07:23:35;;;;;;;1.90;1.80;;;;;;;-145.23;100.00;58621.06;5022254;28;20770;-53
2022/10/16 07:26:01;;;;;;;2.30;2.10;;;;;;;-145.23;100.00;58621.06;5026421;28;20234;-52
2022/10/16 07:28:28;;;;;;;2.30;2.15;;;;;;;-145.23;100.00;58621.06;5023552;28;20241;-52
2022/10/16 07:30:55;;;;;;;2.22;1.80;;;;;;;-145.23;100.00;58621.06;5024877;28;20252;-52
2022/10/16 07:33:22;;;;;;;1.80;1.70;;;;;;;-145.23;100.00;58621.06;5031649;28;20250;-51
2022/10/16 07:35:53;;;;;;;1.83;1.73;;;;;;;-145.23;100.00;58621.06;5034460;28;20729;-53
2022/10/16 07:38:21;;;;;;;1.77;1.67;;;;;;;-145.23;100.00;58621.06;5041488;28;20842;-53
2022/10/16 07:40:49;;;;;;;8.05;6.13;;;;;;;-145.23;100.00;58621.06;5044767;28;20234;-53
2022/10/16 07:43:15;;;;;;;4.03;3.33;;;;;;;-145.23;100.00;58621.06;5046281;28;20828;-52
2022/10/16 07:45:49;;;;;;;2.03;1.73;;;;;;;-145.23;100.00;58621.06;5045962;28;20235;-51
2022/10/16 07:48:16;;;;;;;5.97;1.88;;;;;;;-145.23;100.00;58621.06;5031624;28;20240;-52
2022/10/16 07:50:43;;;;;;;1.52;1.42;;;;;;;-145.23;100.00;58621.06;5042378;28;20239;-52
2022/10/16 07:53:09;;;;;;;1.90;1.73;;;;;;;-145.23;100.00;58621.06;5045451;28;20239;-53
2022/10/16 07:55:36;;;;;;;2.03;1.92;;;;;;;-145.23;100.00;58621.06;5021145;28;20241;-52
2022/10/16 07:58:04;;;;;;;2.60;1.55;;;;;;;-145.23;100.00;58621.06;5024380;28;20465;-53
2022/10/16 08:00:31;;;;;;;1.60;1.50;;;;;;;-145.23;100.00;58621.06;5025282;28;20239;-52
2022/10/16 08:02:59;;;;;;;1.40;1.30;;;;;;;-145.23;100.00;58621.06;5025676;28;20287;-52
2022/10/16 08:05:26;;;;;;;2.63;1.55;;;;;;;-145.23;100.00;58621.06;5018636;28;20290;-53
2022/10/16 08:07:53;;;;;;;1.50;1.40;;;;;;;-145.23;100.00;58621.06;5021348;28;20230;-51
2022/10/16 08:10:21;;;;;;;1.58;1.48;;;;;;;-145.23;100.00;58621.06;5014445;28;20225;-52
2022/10/16 08:12:48;;;;;;;2.13;1.40;;;;;;;-145.23;100.00;58621.06;5014365;28;20242;-51
2022/10/16 08:15:16;;;;;;;2.35;1.42;;;;;;;-145.23;100.00;58621.06;5000047;28;20758;-51
2022/10/16 08:17:43;;;;;;;1.42;1.30;;;;;;;-145.23;100.00;58621.06;5008174;28;20232;-51
2022/10/16 08:20:11;;;;;;;2.05;1.50;;;;;;;-145.23;100.00;58621.06;5016757;28;20237;-54
2022/10/16 08:22:38;;;;;;;2.55;1.27;;;;;;;-145.23;100.00;58621.06;5031411;28;20236;-51
2022/10/16 08:25:05;;;;;;;3.88;3.47;;;;;;;-145.23;100.00;58621.06;5023682;28;20306;-51
2022/10/16 08:27:32;;;;;;;1.63;1.48;;;;;;;-145.23;100.00;58621.06;5014573;28;20225;-51
2022/10/16 08:29:59;;;;;;;1.40;1.30;;;;;;;-145.23;100.00;58621.06;5016569;28;20287;-52
2022/10/16 08:32:27;;;;;;;1.30;1.20;;;;;;;-145.23;100.00;58621.06;5018114;28;20690;-54
2022/10/16 08:34:54;;;;;;;1.42;1.33;;;;;;;-145.23;100.00;58621.06;5022390;28;20242;-52
2022/10/16 08:37:21;;;;;;;3.60;1.63;;;;;;;-145.23;100.00;58621.06;5033115;28;20232;-51
2022/10/16 08:39:47;;;;;;;1.60;1.40;;;;;;;-145.23;100.00;58621.06;5027275;28;20236;-53
2022/10/16 08:42:26;;;;;;;1.40;1.30;;;;;;;-145.23;100.00;58621.06;5031419;28;20323;-53
2022/10/16 08:45:19;;;;;;;2.38;1.42;;;;;;;-145.23;100.00;58621.06;5026675;28;20327;-52
2022/10/16 08:47:50;;;;;;;1.50;1.40;;;;;;;-145.23;100.00;58621.06;5024816;28;20225;-53
2022/10/16 08:50:22;;;;;;;7.97;6.78;;;;;;;-145.23;100.00;58621.06;5025422;28;20229;-52
2022/10/16 08:52:48;;;;;;;1.63;1.52;;;;;;;-145.23;100.00;58621.06;5014430;28;20978;-53
2022/10/16 08:55:27;;;;;;;3.60;1.40;;;;;;;-145.23;100.00;58621.06;5009223;28;20241;-51
2022/10/16 08:57:54;;;;;;;2.08;1.52;;;;;;;-145.23;100.00;58621.06;5017264;28;20228;-53
2022/10/16 09:00:23;;;;;;;1.80;1.27;;;;;;;-145.23;100.00;58621.06;5015764;28;20240;-53
2022/10/16 09:02:54;;;;;;;1.35;1.15;;;;;;;-145.23;100.00;58621.06;5022068;28;20244;-53
2022/10/16 09:05:46;;;;;;;3.20;1.80;;;;;;;-145.23;100.00;58621.06;5012495;28;20263;-52
2022/10/16 09:08:19;;;;;;;2.30;1.23;;;;;;;-145.23;100.00;58621.06;5002109;28;20237;-51
2022/10/16 09:10:52;;;;;;;1.70;1.23;;;;;;;-145.23;100.00;58621.06;5015176;28;20278;-51
2022/10/16 09:13:24;;;;;;;1.52;1.42;;;;;;;-145.23;100.00;58621.06;5016897;28;20646;-53
2022/10/16 09:16:11;;;;;;;1.55;1.45;;;;;;;-145.23;100.00;58621.06;5017307;28;20237;-51
2022/10/16 09:18:42;;;;;;;1.33;1.20;;;;;;;-145.23;100.00;58621.06;5016247;28;20240;-51
2022/10/16 09:21:14;;;;;;;1.92;1.23;;;;;;;-145.23;100.00;58621.06;5001254;28;20269;-52
2022/10/16 09:23:40;;;;;;;2.78;1.10;;;;;;;-145.23;100.00;58621.06;5010248;28;20399;-52
2022/10/16 09:26:11;;;;;;;1.20;1.10;;;;;;;-145.23;100.00;58621.06;5018569;28;20354;-52
2022/10/16 09:28:38;;;;;;;2.08;1.25;;;;;;;-145.23;100.00;58621.06;5010328;28;20782;-53
2022/10/16 09:31:05;;;;;;;1.40;1.30;;;;;;;-145.23;100.00;58621.06;5021429;28;20250;-52
2022/10/16 09:33:35;;;;;;;1.48;1.20;;;;;;;-145.23;100.00;58621.06;5017506;28;20287;-52
2022/10/16 09:36:05;;;;;;;3.25;1.48;;;;;;;-145.23;100.00;58621.06;5018650;28;20259;-52
2022/10/16 09:38:33;;;;;;;1.25;1.15;;;;;;;-145.23;100.00;58621.06;5018243;28;20243;-55
2022/10/16 09:41:02;;;;;;;4.57;1.20;;;;;;;-145.23;100.00;58621.06;5017046;28;20302;-53
2022/10/16 09:43:33;;;;;;;1.23;1.17;;;;;;;-145.23;100.00;58621.06;5017903;28;20352;-52
2022/10/16 09:46:01;;;;;;;2.80;1.10;;;;;;;-145.23;100.00;58621.06;5020398;28;20228;-53
2022/10/16 09:48:34;;;;;;;1.33;1.13;;;;;;;-145.23;100.00;58621.06;5017099;28;20237;-52
2022/10/16 09:51:04;;;;;;;4.47;1.10;;;;;;;-145.23;100.00;58621.06;5016791;28;20237;-52
2022/10/16 09:53:42;;;;;;;1.23;0.90;;;;;;;-145.23;100.00;58621.06;5018854;28;20240;-51
2022/10/16 09:56:13;;;;;;;1.33;1.23;;;;;;;-145.23;100.00;58621.06;5021293;28;21019;-51
2022/10/16 09:58:43;;;;;;;2.05;1.20;;;;;;;-145.23;100.00;58621.06;5014698;28;20304;-53
2022/10/16 10:01:14;;;;;;;1.15;1.10;;;;;;;-145.23;100.00;58621.06;5016628;28;20245;-53
2022/10/16 10:03:42;;;;;;;2.80;1.02;;;;;;;-145.23;100.00;58621.06;5010226;28;20241;-51
2022/10/16 10:06:20;;;;;;;4.75;1.10;;;;;;;-145.23;100.00;58621.06;5006804;28;20233;-52
2022/10/16 10:09:06;;;;;;;1.10;1.10;;;;;;;-145.23;100.00;58621.06;5019604;28;20234;-51
2022/10/16 10:11:43;;;;;;;1.10;1.10;;;;;;;-145.23;100.00;58621.06;5014857;28;20233;-52
2022/10/16 10:14:18;;;;;;;1.27;1.25;;;;;;;-145.23;100.00;58621.06;5007700;28;20786;-52
2022/10/16 10:16:45;;;;;;;2.38;1.10;;;;;;;-145.23;100.00;58621.06;5016654;28;20231;-52
2022/10/16 10:19:16;;;;;;;1.50;1.20;;;;;;;-145.23;100.00;58621.06;5016182;28;20737;-50
2022/10/16 10:21:44;;;;;;;0.88;0.85;;;;;;;-145.23;100.00;58621.06;5014646;28;20252;-52
2022/10/16 10:24:13;;;;;;;0.98;0.98;;;;;;;-145.23;100.00;58621.06;5005388;28;20247;-52
2022/10/16 10:26:40;;;;;;;1.23;1.23;;;;;;;-145.23;100.00;58621.06;5013262;28;20230;-51
2022/10/16 10:29:13;;;;;;;2.25;1.10;;;;;;;-145.23;100.00;58621.06;5004611;28;20288;-51
2022/10/16 10:31:44;;;;;;;1.13;1.05;;;;;;;-145.23;100.00;58621.06;4994459;28;20332;-53
2022/10/16 10:34:20;;;;;;;1.40;1.30;;;;;;;-145.23;100.00;58621.06;5008654;28;20295;-52
2022/10/16 10:36:54;;;;;;;0.88;0.88;;;;;;;-145.23;100.00;58621.06;5009910;28;20921;-52
2022/10/16 10:39:25;;;;;;;1.10;1.05;;;;;;;-145.23;100.00;58621.06;5015040;28;20346;-52
2022/10/16 10:42:20;;;;;;;1.98;1.88;;;;;;;-145.23;100.00;58621.06;5023604;28;20264;-51
2022/10/16 10:45:18;;;;;;;1.65;1.05;;;;;;;-145.23;100.00;58621.06;5023200;28;20228;-51
2022/10/16 10:47:53;;;;;;;2.10;0.95;;;;;;;-145.23;100.00;58621.06;5018012;28;20227;-52
2022/10/16 10:50:24;;;;;;;1.48;0.80;;;;;;;-145.23;100.00;58621.06;5011868;28;20272;-51
2022/10/16 10:53:00;;;;;;;1.95;1.00;;;;;;;-145.23;100.00;58621.06;5024223;28;20236;-52
2022/10/16 10:55:34;;;;;;;1.13;0.90;;;;;;;-145.23;100.00;58621.06;5013454;28;20295;-52
2022/10/16 10:58:15;;;;;;;2.42;1.00;;;;;;;-145.23;100.00;58621.06;5013964;28;20311;-52
2022/10/16 11:00:49;;;;;;;0.95;0.85;;;;;;;-145.23;100.00;58621.06;5020981;28;20825;-52
2022/10/16 11:03:32;;;;;;;1.52;1.15;;;;;;;-145.23;100.00;58621.06;5021169;28;20645;-52
2022/10/16 11:06:00;;;;;;;1.20;0.93;;;;;;;-145.23;100.00;58621.06;5023536;28;20231;-53
2022/10/16 11:08:31;;;;;;;1.10;0.85;;;;;;;-145.23;100.00;58621.06;5015868;28;20229;-51
2022/10/16 11:10:59;;;;;;;0.82;0.75;;;;;;;-145.23;100.00;58621.06;5025698;28;20717;-53
2022/10/16 11:13:32;;;;;;;0.73;0.73;;;;;;;-145.23;100.00;58621.06;5020805;28;20245;-52
2022/10/16 11:16:02;;;;;;;0.77;0.77;;;;;;;-145.23;100.00;58621.06;5023035;28;20233;-52
2022/10/16 11:18:35;;;;;;;1.17;0.80;;;;;;;-145.23;100.00;58621.06;5023255;28;20224;-52